Time;durP1;ratioP1;P1;durP2;ratioP2;P2;SDS_P1;SDS_P2;PMS_P1;PMS_P2;Temp;Humidity;BMP_temperature;BMP_pressure;BME280_temperature;BME280_humidity;BME280_pressure;Samples;Min_cycle;Max_cycle;Signal;HPM_P1;HPM_P2
2023/04/03 00:00:31;;;;;;;1.63;0.50;;;3.50;99.90;;;;;;5014943;28;20039;-74
2023/04/03 00:02:58;;;;;;;3.10;0.80;;;3.50;99.90;;;;;;5034554;28;20047;-74
2023/04/03 00:05:25;;;;;;;2.90;0.83;;;3.50;99.90;;;;;;5035434;28;20041;-75
2023/04/03 00:07:51;;;;;;;4.20;0.80;;;3.50;99.90;;;;;;5032087;28;20036;-74
2023/04/03 00:10:17;;;;;;;3.63;0.60;;;3.50;99.90;;;;;;4992082;28;20047;-75
2023/04/03 00:12:44;;;;;;;2.93;0.60;;;3.50;99.90;;;;;;5009484;28;20024;-74
2023/04/03 00:15:10;;;;;;;5.27;0.87;;;3.40;99.90;;;;;;5014318;28;20048;-74
2023/04/03 00:17:37;;;;;;;2.17;0.50;;;3.40;99.90;;;;;;5032761;28;20040;-74
2023/04/03 00:20:05;;;;;;;2.45;0.73;;;3.30;99.90;;;;;;4994373;28;20052;-74
2023/04/03 00:22:31;;;;;;;2.90;0.60;;;3.40;99.90;;;;;;4997123;28;20040;-74
2023/04/03 00:24:58;;;;;;;2.30;0.43;;;3.40;99.90;;;;;;5021029;28;20037;-73
2023/04/03 00:27:24;;;;;;;3.13;1.03;;;3.40;99.90;;;;;;5005734;28;20601;-74
2023/04/03 00:29:50;;;;;;;4.07;0.60;;;3.30;99.90;;;;;;5020647;28;20040;-74
2023/04/03 00:32:17;;;;;;;4.33;0.63;;;3.30;99.90;;;;;;4995938;28;20055;-74
2023/04/03 00:34:44;;;;;;;7.70;0.87;;;3.30;99.90;;;;;;5039012;28;20629;-74
2023/04/03 00:37:10;;;;;;;3.00;0.60;;;3.30;99.90;;;;;;5000609;28;20032;-74
2023/04/03 00:39:37;;;;;;;1.43;0.80;;;3.30;99.90;;;;;;5035912;28;20047;-74
2023/04/03 00:42:03;;;;;;;2.33;0.60;;;3.30;99.90;;;;;;5029020;28;20040;-74
2023/04/03 00:44:32;;;;;;;4.50;0.90;;;3.30;99.90;;;;;;5017048;28;20052;-75
2023/04/03 00:47:00;;;;;;;7.00;0.90;;;3.40;99.90;;;;;;5018905;28;20476;-74
2023/04/03 00:49:27;;;;;;;4.03;0.70;;;3.30;99.90;;;;;;5037187;28;20742;-75
2023/04/03 00:51:55;;;;;;;3.90;0.60;;;3.40;99.90;;;;;;5008559;28;20487;-74
2023/04/03 00:54:21;;;;;;;3.03;0.80;;;3.40;99.90;;;;;;4999691;28;20055;-75
2023/04/03 00:56:51;;;;;;;2.60;0.87;;;3.40;99.90;;;;;;5036131;28;20407;-75
2023/04/03 00:59:25;;;;;;;2.30;0.67;;;3.30;99.90;;;;;;5018283;28;20048;-74
2023/04/03 01:01:56;;;;;;;2.20;0.73;;;3.40;99.90;;;;;;5023673;28;20039;-74
2023/04/03 01:04:43;;;;;;;2.77;0.77;;;3.40;99.90;;;;;;5036662;28;20515;-75
2023/04/03 01:07:26;;;;;;;2.30;0.60;;;3.40;99.90;;;;;;5040862;28;20020;-74
2023/04/03 01:09:57;;;;;;;2.47;0.63;;;3.30;99.90;;;;;;5023752;28;20201;-73
2023/04/03 01:12:29;;;;;;;4.57;0.63;;;3.30;99.90;;;;;;5032571;28;20035;-74
2023/04/03 01:14:59;;;;;;;11.30;0.85;;;3.30;99.90;;;;;;5018568;28;20041;-76
2023/04/03 01:17:28;;;;;;;5.33;0.60;;;3.30;99.90;;;;;;4998858;28;20040;-74
2023/04/03 01:20:11;;;;;;;3.47;0.50;;;3.30;99.90;;;;;;5033989;28;20067;-75
2023/04/03 01:22:43;;;;;;;;;;;3.30;99.90;;;;;;5012820;28;20036;-74
2023/04/03 01:25:10;;;;;;;5.80;1.00;;;3.20;99.90;;;;;;5001360;28;20406;-75
2023/04/03 01:27:36;;;;;;;2.40;0.90;;;3.20;99.90;;;;;;5003312;28;20032;-74
2023/04/03 01:30:03;;;;;;;2.70;0.70;;;3.20;99.90;;;;;;5001421;28;20060;-74
2023/04/03 01:32:29;;;;;;;5.90;0.90;;;3.20;99.90;;;;;;5011832;28;20434;-76
2023/04/03 01:34:56;;;;;;;4.33;0.70;;;3.20;99.90;;;;;;4984395;28;20037;-75
2023/04/03 01:37:22;;;;;;;3.60;0.70;;;3.20;99.90;;;;;;5015073;28;20037;-75
2023/04/03 01:39:49;;;;;;;3.67;0.70;;;3.20;99.90;;;;;;5014951;28;20064;-76
2023/04/03 01:42:15;;;;;;;3.73;0.80;;;3.20;99.90;;;;;;5009143;28;21104;-74
2023/04/03 01:44:45;;;;;;;6.00;0.60;;;3.20;99.90;;;;;;5015718;28;20063;-75
2023/04/03 01:47:11;;;;;;;3.93;0.53;;;3.20;99.90;;;;;;5017982;28;20037;-77
2023/04/03 01:49:39;;;;;;;3.87;0.60;;;3.20;99.90;;;;;;5005581;28;20024;-76
2023/04/03 01:52:06;;;;;;;4.77;0.90;;;3.10;99.90;;;;;;5010736;28;20036;-76
2023/04/03 01:54:32;;;;;;;4.67;0.83;;;3.10;99.90;;;;;;5034977;28;20040;-74
2023/04/03 01:56:59;;;;;;;2.70;0.90;;;3.10;99.90;;;;;;5000363;28;20033;-74
2023/04/03 01:59:26;;;;;;;4.13;0.80;;;3.10;99.90;;;;;;5014860;28;20037;-77
2023/04/03 02:01:53;;;;;;;2.80;0.63;;;3.10;99.90;;;;;;4992874;28;20040;-75
2023/04/03 02:04:19;;;;;;;3.30;0.60;;;3.10;99.90;;;;;;5016526;28;20045;-75
2023/04/03 02:06:46;;;;;;;4.67;0.90;;;3.00;99.90;;;;;;5018283;28;20041;-77
2023/04/03 02:09:12;;;;;;;2.57;0.50;;;3.00;99.90;;;;;;5040102;28;21276;-75
2023/04/03 02:11:38;;;;;;;6.00;1.17;;;3.00;99.90;;;;;;4997576;28;20048;-74
2023/04/03 02:14:05;;;;;;;3.13;0.60;;;3.00;99.90;;;;;;5012935;28;20051;-74
2023/04/03 02:16:31;;;;;;;2.87;0.80;;;3.00;99.90;;;;;;5016420;28;20028;-76
2023/04/03 02:18:58;;;;;;;3.10;0.63;;;3.00;99.90;;;;;;5034667;28;20052;-75
2023/04/03 02:21:24;;;;;;;4.73;1.07;;;3.00;99.90;;;;;;4996581;28;20060;-74
2023/04/03 02:23:50;;;;;;;5.30;0.93;;;3.00;99.90;;;;;;4995054;28;20059;-75
2023/04/03 02:26:18;;;;;;;3.87;1.00;;;3.00;99.90;;;;;;5017417;28;20040;-75
2023/04/03 02:28:45;;;;;;;3.63;0.83;;;3.00;99.90;;;;;;5001452;28;20032;-75
2023/04/03 02:31:12;;;;;;;5.03;0.90;;;2.90;99.90;;;;;;5014965;28;20487;-75
2023/04/03 02:33:41;;;;;;;3.73;0.90;;;2.90;99.90;;;;;;4994098;28;20040;-77
2023/04/03 02:36:10;;;;;;;8.30;0.77;;;2.90;99.90;;;;;;5002925;28;20039;-74
2023/04/03 02:38:38;;;;;;;4.27;0.70;;;2.90;99.90;;;;;;5016091;28;21409;-76
2023/04/03 02:41:07;;;;;;;6.70;0.80;;;2.90;99.90;;;;;;5029942;28;20032;-73
2023/04/03 02:43:34;;;;;;;3.93;0.97;;;2.90;99.90;;;;;;5029951;28;20043;-76
2023/04/03 02:46:00;;;;;;;7.97;1.00;;;2.90;99.90;;;;;;5001466;28;20040;-73
2023/04/03 02:48:26;;;;;;;5.37;0.60;;;2.90;99.90;;;;;;5005430;28;20032;-74
2023/04/03 02:50:54;;;;;;;3.67;0.70;;;2.90;99.90;;;;;;4982850;28;20043;-76
2023/04/03 02:53:20;;;;;;;3.40;0.80;;;2.80;99.90;;;;;;5011189;28;20041;-74
2023/04/03 02:55:48;;;;;;;6.17;0.90;;;2.80;99.90;;;;;;5015153;28;20538;-74
2023/04/03 02:58:15;;;;;;;6.50;0.97;;;2.80;99.90;;;;;;4984168;28;20051;-76
2023/04/03 03:00:41;;;;;;;2.90;0.73;;;2.80;99.90;;;;;;5010206;28;20025;-74
2023/04/03 03:03:08;;;;;;;4.33;0.80;;;2.70;99.90;;;;;;5008507;28;20036;-74
2023/04/03 03:05:34;;;;;;;4.00;0.97;;;2.70;99.90;;;;;;5001166;28;20625;-74
2023/04/03 03:08:01;;;;;;;2.17;0.57;;;2.70;99.90;;;;;;5002376;28;20037;-73
2023/04/03 03:10:27;;;;;;;5.93;0.67;;;2.70;99.90;;;;;;5014306;28;20566;-76
2023/04/03 03:12:54;;;;;;;4.47;1.47;;;2.70;99.90;;;;;;5010672;28;20040;-74
2023/04/03 03:15:20;;;;;;;4.57;0.70;;;2.60;99.90;;;;;;5015176;28;20063;-73
2023/04/03 03:17:48;;;;;;;4.87;0.93;;;2.60;99.90;;;;;;4995871;28;20044;-75
2023/04/03 03:20:15;;;;;;;3.17;0.73;;;2.60;99.90;;;;;;4995002;28;20076;-73
2023/04/03 03:22:44;;;;;;;4.10;0.50;;;2.60;99.90;;;;;;4992124;28;20044;-76
2023/04/03 03:25:10;;;;;;;3.17;1.00;;;2.50;99.90;;;;;;4999316;28;20040;-75
2023/04/03 03:27:36;;;;;;;4.03;1.10;;;2.50;99.90;;;;;;5036414;28;20392;-75
2023/04/03 03:30:06;;;;;;;4.97;1.00;;;2.50;99.90;;;;;;5017224;28;20479;-75
2023/04/03 03:32:33;;;;;;;3.53;0.80;;;2.50;99.90;;;;;;4998713;28;20032;-75
2023/04/03 03:34:59;;;;;;;3.83;0.80;;;2.50;99.90;;;;;;5014049;28;20041;-76
2023/04/03 03:37:26;;;;;;;4.20;0.73;;;2.50;99.90;;;;;;4998735;28;20028;-75
2023/04/03 03:39:53;;;;;;;3.47;0.70;;;2.40;99.90;;;;;;5032969;28;20052;-74
2023/04/03 03:42:19;;;;;;;6.37;1.27;;;2.40;99.90;;;;;;5005885;28;20483;-75
2023/04/03 03:44:45;;;;;;;6.53;0.80;;;2.40;99.90;;;;;;5014341;28;20040;-76
2023/04/03 03:47:12;;;;;;;6.00;0.93;;;2.40;99.90;;;;;;5015921;28;20049;-75
2023/04/03 03:49:39;;;;;;;3.03;0.63;;;2.30;99.90;;;;;;5036991;28;20039;-75
2023/04/03 03:52:05;;;;;;;4.20;0.73;;;2.30;99.90;;;;;;5010167;28;20029;-75
2023/04/03 03:54:31;;;;;;;4.43;0.50;;;2.30;99.90;;;;;;4998667;28;20048;-76
2023/04/03 03:56:58;;;;;;;2.93;0.70;;;2.30;99.90;;;;;;5013828;28;20037;-75
2023/04/03 03:59:26;;;;;;;6.13;0.97;;;2.30;99.90;;;;;;4996247;28;20044;-77
2023/04/03 04:01:52;;;;;;;5.87;0.80;;;2.20;99.90;;;;;;4989109;28;20051;-75
2023/04/03 04:04:19;;;;;;;9.43;1.13;;;2.20;99.90;;;;;;4997971;28;20040;-76
2023/04/03 04:06:45;;;;;;;2.50;0.60;;;2.20;99.90;;;;;;4996073;28;20037;-76
2023/04/03 04:09:12;;;;;;;4.00;0.77;;;2.20;99.90;;;;;;5018211;28;20059;-75
2023/04/03 04:11:40;;;;;;;4.77;0.93;;;2.10;99.90;;;;;;5014196;28;20033;-76
2023/04/03 04:14:07;;;;;;;2.93;0.80;;;2.10;99.90;;;;;;5013856;28;20041;-75
2023/04/03 04:16:34;;;;;;;4.20;1.13;;;2.10;99.90;;;;;;4998203;28;20033;-76
2023/04/03 04:19:06;;;;;;;6.43;1.25;;;2.00;99.90;;;;;;4984866;28;20040;-75
2023/04/03 04:21:33;;;;;;;3.77;0.80;;;2.00;99.90;;;;;;4992862;28;20044;-75
2023/04/03 04:23:59;;;;;;;5.97;1.33;;;2.00;99.90;;;;;;4994213;28;20655;-74
2023/04/03 04:26:26;;;;;;;5.87;1.00;;;2.00;99.90;;;;;;4998446;28;20434;-74
2023/04/03 04:28:52;;;;;;;8.00;1.10;;;2.00;99.90;;;;;;4997098;28;20044;-76
2023/04/03 04:31:20;;;;;;;5.57;0.90;;;2.00;99.90;;;;;;4998599;28;20905;-73
2023/04/03 04:33:46;;;;;;;5.17;1.40;;;1.90;99.90;;;;;;4996098;28;20043;-76
2023/04/03 04:36:14;;;;;;;4.70;0.90;;;1.90;99.90;;;;;;5015199;28;20037;-75
2023/04/03 04:38:42;;;;;;;5.13;0.87;;;1.90;99.90;;;;;;5004701;28;20041;-75
2023/04/03 04:41:09;;;;;;;5.10;0.93;;;1.90;99.90;;;;;;5011789;28;20392;-76
2023/04/03 04:43:36;;;;;;;4.30;0.87;;;1.90;99.90;;;;;;4994066;28;20041;-75
2023/04/03 04:46:03;;;;;;;4.90;1.50;;;1.90;99.90;;;;;;5012667;28;20853;-75
2023/04/03 04:48:34;;;;;;;2.13;0.83;;;1.80;99.90;;;;;;5028296;28;20047;-75
2023/04/03 04:51:01;;;;;;;7.57;1.03;;;1.80;99.90;;;;;;4981366;28;20743;-76
2023/04/03 04:53:28;;;;;;;6.60;1.20;;;1.80;99.90;;;;;;5014104;28;20551;-77
2023/04/03 04:55:55;;;;;;;8.33;1.33;;;1.80;99.90;;;;;;4982355;28;20033;-77
2023/04/03 04:58:21;;;;;;;5.33;1.20;;;1.80;99.90;;;;;;4997018;28;20799;-75
2023/04/03 05:00:48;;;;;;;6.33;1.10;;;1.80;99.90;;;;;;5008686;28;20036;-77
2023/04/03 05:03:15;;;;;;;4.07;0.80;;;1.80;99.90;;;;;;5006299;28;20029;-74
2023/04/03 05:05:41;;;;;;;6.90;1.23;;;1.80;99.90;;;;;;5012331;28;20043;-73
2023/04/03 05:08:08;;;;;;;6.27;1.13;;;1.70;99.90;;;;;;5001605;28;20040;-75
2023/04/03 05:10:35;;;;;;;6.33;1.30;;;1.70;99.90;;;;;;5000986;28;20462;-76
2023/04/03 05:13:02;;;;;;;5.23;1.13;;;1.70;99.90;;;;;;5017998;28;20083;-74
2023/04/03 05:15:28;;;;;;;7.13;1.10;;;1.70;99.90;;;;;;5004084;28;20039;-74
2023/04/03 05:17:54;;;;;;;2.70;0.53;;;1.70;99.90;;;;;;5015882;28;20043;-74
2023/04/03 05:20:21;;;;;;;4.40;0.80;;;1.70;99.90;;;;;;5009907;28;20057;-74
2023/04/03 05:22:49;;;;;;;4.33;0.80;;;1.70;99.90;;;;;;4980433;28;20037;-73
2023/04/03 05:25:16;;;;;;;10.37;1.20;;;1.70;99.90;;;;;;5032262;28;20036;-75
2023/04/03 05:27:44;;;;;;;4.20;0.93;;;1.70;99.90;;;;;;5015002;28;20716;-74
2023/04/03 05:30:11;;;;;;;9.30;2.83;;;1.70;99.90;;;;;;5034139;28;20596;-73
2023/04/03 05:32:39;;;;;;;7.40;2.07;;;1.80;99.90;;;;;;5022308;28;20036;-73
2023/04/03 05:35:16;;;;;;;4.83;1.00;;;1.80;99.90;;;;;;5021298;28;20408;-75
2023/04/03 05:37:44;;;;;;;7.40;1.00;;;1.80;99.90;;;;;;5000269;28;20032;-75
2023/04/03 05:40:11;;;;;;;5.50;1.20;;;1.80;99.90;;;;;;5001358;28;20529;-74
2023/04/03 05:42:41;;;;;;;5.37;1.10;;;1.90;99.90;;;;;;4996580;28;20391;-75
2023/04/03 05:45:07;;;;;;;6.03;1.00;;;1.90;99.90;;;;;;5036328;28;20028;-74
2023/04/03 05:47:34;;;;;;;3.50;0.80;;;1.90;99.90;;;;;;5016116;28;20403;-74
2023/04/03 05:50:01;;;;;;;6.27;1.13;;;2.00;99.90;;;;;;5014881;28;20051;-74
2023/04/03 05:52:35;;;;;;;5.43;0.87;;;2.00;99.90;;;;;;5015330;28;20574;-73
2023/04/03 05:55:01;;;;;;;5.87;1.20;;;2.10;99.90;;;;;;5005725;28;20036;-75
2023/04/03 05:57:30;;;;;;;5.13;1.00;;;2.10;99.90;;;;;;5003688;28;20040;-74
2023/04/03 05:59:56;;;;;;;7.03;1.00;;;2.10;99.90;;;;;;4987517;28;20040;-74
2023/04/03 06:02:24;;;;;;;9.03;1.37;;;2.20;99.90;;;;;;5011446;28;20044;-73
2023/04/03 06:04:51;;;;;;;4.30;1.03;;;2.30;99.90;;;;;;5018622;28;20037;-74
2023/04/03 06:07:22;;;;;;;6.80;1.10;;;2.40;99.90;;;;;;5014612;28;20041;-74
2023/04/03 06:09:51;;;;;;;3.63;0.80;;;2.50;99.90;;;;;;5034072;28;20428;-75
2023/04/03 06:12:18;;;;;;;3.63;1.00;;;2.60;99.90;;;;;;5011462;28;20040;-75
2023/04/03 06:14:45;;;;;;;6.70;1.20;;;2.80;99.90;;;;;;5020231;28;20589;-73
2023/04/03 06:17:15;;;;;;;4.50;0.70;;;2.90;99.90;;;;;;5005302;28;20055;-74
2023/04/03 06:19:41;;;;;;;10.30;1.37;;;3.00;99.90;;;;;;4999343;28;20393;-73
2023/04/03 06:22:08;;;;;;;6.03;0.90;;;3.10;99.90;;;;;;4994701;28;20052;-74
2023/04/03 06:24:35;;;;;;;7.43;1.03;;;3.20;99.90;;;;;;5002893;28;20036;-75
2023/04/03 06:27:01;;;;;;;8.23;1.33;;;3.30;99.90;;;;;;4987711;28;20040;-76
2023/04/03 06:29:27;;;;;;;5.80;0.80;;;3.30;99.90;;;;;;5035030;28;20040;-73
2023/04/03 06:31:54;;;;;;;4.83;0.90;;;3.40;99.90;;;;;;5029453;28;20416;-74
2023/04/03 06:34:21;;;;;;;4.53;1.00;;;3.50;99.90;;;;;;5004140;28;20472;-74
2023/04/03 06:36:48;;;;;;;3.97;0.87;;;3.60;99.90;;;;;;5020145;28;20036;-75
2023/04/03 06:39:17;;;;;;;4.70;1.10;;;3.80;99.90;;;;;;5035849;28;20031;-73
2023/04/03 06:41:44;;;;;;;4.33;0.87;;;3.90;99.90;;;;;;5028280;28;20403;-73
2023/04/03 06:44:11;;;;;;;3.57;0.70;;;3.90;99.90;;;;;;4996067;28;20055;-73
2023/04/03 06:46:38;;;;;;;4.40;0.80;;;3.90;99.90;;;;;;5034634;28;20038;-74
2023/04/03 06:49:07;;;;;;;6.73;1.53;;;4.00;99.90;;;;;;5014520;28;20072;-73
2023/04/03 06:51:34;;;;;;;4.47;0.70;;;4.00;99.90;;;;;;5011441;28;20051;-74
2023/04/03 06:54:01;;;;;;;6.25;1.20;;;4.10;99.90;;;;;;4998901;28;20032;-74
2023/04/03 06:56:27;;;;;;;5.27;0.80;;;4.20;99.90;;;;;;5039908;28;20040;-74
2023/04/03 06:58:57;;;;;;;5.73;1.10;;;4.20;99.90;;;;;;5001730;28;20423;-73
2023/04/03 07:01:28;;;;;;;5.67;0.80;;;4.30;99.90;;;;;;5030657;28;20036;-74
2023/04/03 07:03:55;;;;;;;6.73;0.80;;;4.30;99.90;;;;;;4994633;28;20399;-74
2023/04/03 07:06:22;;;;;;;5.93;0.90;;;4.40;99.90;;;;;;5035593;28;20036;-75
2023/04/03 07:08:48;;;;;;;6.50;1.23;;;4.40;99.90;;;;;;4997895;28;21016;-74
2023/04/03 07:11:15;;;;;;;7.47;1.07;;;4.40;99.90;;;;;;5011896;28;20032;-74
2023/04/03 07:13:41;;;;;;;7.63;1.43;;;4.50;99.90;;;;;;5034179;28;20426;-74
2023/04/03 07:16:08;;;;;;;26.57;12.30;;;4.50;99.90;;;;;;5003480;28;20036;-74
2023/04/03 07:18:35;;;;;;;8.47;1.83;;;4.60;99.90;;;;;;5019082;28;20579;-75
2023/04/03 07:21:02;;;;;;;5.40;0.90;;;4.70;99.90;;;;;;5010589;28;20060;-74
2023/04/03 07:23:29;;;;;;;5.30;1.30;;;4.80;99.90;;;;;;5030016;28;20036;-75
2023/04/03 07:25:55;;;;;;;5.47;1.17;;;4.90;99.90;;;;;;5015102;28;20986;-75
2023/04/03 07:28:23;;;;;;;3.65;0.90;;;5.00;99.90;;;;;;5034254;28;20032;-75
2023/04/03 07:30:51;;;;;;;6.00;0.60;;;5.10;99.90;;;;;;5007681;28;20037;-73
2023/04/03 07:33:21;;;;;;;4.97;0.77;;;5.10;99.90;;;;;;5010471;28;20055;-75
2023/04/03 07:35:47;;;;;;;4.20;0.80;;;5.20;99.90;;;;;;5019143;28;20042;-74
2023/04/03 07:38:13;;;;;;;4.70;0.60;;;5.20;99.90;;;;;;5037803;28;20040;-74
2023/04/03 07:40:45;;;;;;;4.75;0.57;;;5.30;99.90;;;;;;5012495;28;20043;-75
2023/04/03 07:43:11;;;;;;;4.80;0.55;;;5.40;99.90;;;;;;4995567;28;20692;-74
2023/04/03 07:45:38;;;;;;;2.77;0.53;;;5.50;99.90;;;;;;5000025;28;20040;-73
2023/04/03 07:48:04;;;;;;;3.88;0.50;;;5.50;99.90;;;;;;5014607;28;20033;-73
2023/04/03 07:50:32;;;;;;;3.78;0.40;;;5.60;99.90;;;;;;5029846;28;21196;-73
2023/04/03 07:52:58;;;;;;;3.47;0.73;;;5.70;99.90;;;;;;5011663;28;20039;-74
2023/04/03 07:55:25;;;;;;;2.53;0.60;;;5.80;99.90;;;;;;5038747;28;20032;-74
2023/04/03 07:57:51;;;;;;;3.45;0.50;;;5.80;99.90;;;;;;5017845;28;20040;-73
2023/04/03 08:00:19;;;;;;;4.15;0.80;;;5.80;99.90;;;;;;5032911;28;20039;-73
2023/04/03 08:02:50;;;;;;;3.47;0.60;;;5.70;99.90;;;;;;4991207;28;20047;-74
2023/04/03 08:05:18;;;;;;;3.93;0.97;;;5.70;99.90;;;;;;5034593;28;20039;-74
2023/04/03 08:07:45;;;;;;;3.13;0.47;;;5.80;99.90;;;;;;5034347;28;20047;-73
2023/04/03 08:10:11;;;;;;;2.33;0.57;;;5.90;99.90;;;;;;4994957;28;20403;-73
2023/04/03 08:12:37;;;;;;;2.80;0.50;;;6.00;99.90;;;;;;5029867;28;21132;-74
2023/04/03 08:15:04;;;;;;;2.72;0.60;;;6.10;99.90;;;;;;5015596;28;20037;-73
2023/04/03 08:17:30;;;;;;;4.15;0.57;;;6.10;99.90;;;;;;5039390;28;20041;-73
2023/04/03 08:19:57;;;;;;;4.97;0.60;;;6.20;99.90;;;;;;5034473;28;20053;-73
2023/04/03 08:22:23;;;;;;;2.17;0.50;;;6.30;99.90;;;;;;5029106;28;20407;-73
2023/04/03 08:24:49;;;;;;;3.25;0.45;;;6.30;99.90;;;;;;5015299;28;20455;-74
2023/04/03 08:27:16;;;;;;;2.72;0.40;;;6.50;99.90;;;;;;5015336;28;20032;-73
2023/04/03 08:29:42;;;;;;;4.50;0.50;;;6.60;99.90;;;;;;5033145;28;20047;-73
2023/04/03 08:32:08;;;;;;;5.40;0.57;;;6.60;99.90;;;;;;5006694;28;20041;-74
2023/04/03 08:34:36;;;;;;;2.70;0.40;;;6.70;99.90;;;;;;5034358;28;20393;-74
2023/04/03 08:37:03;;;;;;;5.07;0.30;;;6.70;99.90;;;;;;5037188;28;20051;-73
2023/04/03 08:39:29;;;;;;;3.08;0.40;;;6.80;99.90;;;;;;5017420;28;20063;-73
2023/04/03 08:42:00;;;;;;;2.58;0.40;;;6.90;99.90;;;;;;5011503;28;20044;-73
2023/04/03 08:44:36;;;;;;;1.10;0.30;;;7.00;99.90;;;;;;5003616;28;20040;-74
2023/04/03 08:47:18;;;;;;;0.95;0.20;;;7.00;99.90;;;;;;5017035;28;20451;-73
2023/04/03 08:50:12;;;;;;;1.85;0.30;;;7.20;99.90;;;;;;5036882;28;20041;-73
2023/04/03 08:52:45;;;;;;;1.23;0.30;;;7.30;98.80;;;;;;5033316;28;20754;-74
2023/04/03 08:55:22;;;;;;;2.38;0.40;;;7.30;98.30;;;;;;5018425;28;20036;-73
2023/04/03 08:57:52;;;;;;;2.92;0.20;;;7.40;97.10;;;;;;5040210;28;20037;-73
2023/04/03 09:00:23;;;;;;;3.45;0.20;;;7.50;97.10;;;;;;5036909;28;20036;-74
2023/04/03 09:02:52;;;;;;;0.65;0.20;;;7.60;96.30;;;;;;5016622;28;20541;-74
2023/04/03 09:05:20;;;;;;;1.20;0.30;;;7.70;94.80;;;;;;5037148;28;20044;-73
2023/04/03 09:08:06;;;;;;;0.70;0.20;;;7.80;94.10;;;;;;5001991;28;20041;-74
2023/04/03 09:10:37;;;;;;;0.70;0.20;;;7.90;93.20;;;;;;5033317;28;20041;-74
2023/04/03 09:13:10;;;;;;;0.93;0.20;;;8.00;92.80;;;;;;5033439;28;20040;-74
2023/04/03 09:15:36;;;;;;;1.27;0.13;;;8.10;91.00;;;;;;5037162;28;20083;-74
2023/04/03 09:18:23;;;;;;;0.65;0.10;;;8.00;90.30;;;;;;5021482;28;20039;-73
2023/04/03 09:21:07;;;;;;;2.13;0.20;;;8.00;88.60;;;;;;5037391;28;20059;-73
2023/04/03 09:23:39;;;;;;;1.80;0.28;;;8.10;86.80;;;;;;5035476;28;20040;-75
2023/04/03 09:26:16;;;;;;;1.00;0.30;;;8.10;85.30;;;;;;5039054;28;23247;-73
2023/04/03 09:28:44;;;;;;;2.05;0.20;;;8.10;81.80;;;;;;5038497;28;20495;-73
2023/04/03 09:31:23;;;;;;;1.13;0.20;;;8.10;78.60;;;;;;5034188;28;20037;-73
2023/04/03 09:33:54;;;;;;;1.83;0.10;;;8.10;75.70;;;;;;5014839;28;20047;-73
2023/04/03 09:36:44;;;;;;;0.82;0.20;;;8.00;76.90;;;;;;5036307;28;20040;-73
2023/04/03 09:39:16;;;;;;;0.90;0.10;;;8.00;75.00;;;;;;5024056;28;20059;-73
2023/04/03 09:41:55;;;;;;;1.90;0.15;;;8.10;74.10;;;;;;4998625;28;20044;-73
2023/04/03 09:44:24;;;;;;;2.25;0.20;;;8.10;74.20;;;;;;5017419;28;20703;-74
2023/04/03 09:46:51;;;;;;;0.98;0.20;;;8.20;74.20;;;;;;5019406;28;20039;-73
2023/04/03 09:49:18;;;;;;;0.77;0.10;;;8.30;73.50;;;;;;5037611;28;20044;-73
2023/04/03 09:51:45;;;;;;;0.70;0.22;;;8.30;72.80;;;;;;5030866;28;20044;-73
2023/04/03 09:54:40;;;;;;;0.82;0.13;;;8.30;72.60;;;;;;5034306;28;20435;-73
2023/04/03 09:57:12;;;;;;;1.45;0.30;;;8.40;72.30;;;;;;5001967;28;20495;-73
2023/04/03 09:59:59;;;;;;;1.42;0.20;;;8.40;71.10;;;;;;5004672;28;20158;-74
2023/04/03 10:02:42;;;;;;;1.40;0.30;;;8.40;71.70;;;;;;4999191;28;20033;-73
2023/04/03 10:05:27;;;;;;;1.50;0.28;;;8.40;70.30;;;;;;5000614;28;20036;-73
2023/04/03 10:08:09;;;;;;;1.23;0.20;;;8.40;70.90;;;;;;5017847;28;20403;-74
2023/04/03 10:10:36;;;;;;;2.70;0.10;;;8.50;72.10;;;;;;5033253;28;20037;-73
2023/04/03 10:13:11;;;;;;;0.88;0.30;;;8.60;72.60;;;;;;5014059;28;20066;-74
2023/04/03 10:15:55;;;;;;;2.17;0.20;;;8.70;72.70;;;;;;5036135;28;20044;-74
2023/04/03 10:18:49;;;;;;;0.98;0.20;;;8.80;73.50;;;;;;5022203;28;20040;-73
2023/04/03 10:21:26;;;;;;;1.52;0.20;;;9.00;74.70;;;;;;5018927;28;20534;-72
2023/04/03 10:24:10;;;;;;;2.05;0.30;;;9.20;70.00;;;;;;5017507;28;20029;-73
2023/04/03 10:27:02;;;;;;;1.55;0.35;;;9.30;71.00;;;;;;5017088;28;20040;-73
2023/04/03 10:29:40;;;;;;;2.55;0.30;;;9.50;71.70;;;;;;5002603;28;20036;-73
2023/04/03 10:32:30;;;;;;;2.35;0.40;;;9.80;71.50;;;;;;5029936;28;20032;-73
2023/04/03 10:35:07;;;;;;;3.65;1.23;;;10.10;70.70;;;;;;5019398;28;20632;-73
2023/04/03 10:38:07;;;;;;;2.13;0.32;;;10.30;70.80;;;;;;5037770;28;20671;-74
2023/04/03 10:40:55;;;;;;;2.53;0.60;;;10.70;71.50;;;;;;4998932;28;20049;-73
2023/04/03 10:43:36;;;;;;;1.70;0.30;;;11.00;71.30;;;;;;5034308;28;20036;-73
2023/04/03 10:46:07;;;;;;;3.13;0.60;;;11.20;69.40;;;;;;5013757;28;20041;-73
2023/04/03 10:48:54;;;;;;;30.60;18.80;;;11.60;69.00;;;;;;5015241;28;20040;-77
2023/04/03 10:51:27;;;;;;;2.17;0.30;;;11.70;67.80;;;;;;4994711;28;20033;-71
2023/04/03 10:53:53;;;;;;;;;;;11.80;66.60;;;;;;5029897;28;20905;-73
2023/04/03 10:56:28;;;;;;;1.48;0.30;;;12.00;68.00;;;;;;5015105;28;20125;-73
2023/04/03 10:59:11;;;;;;;0.80;0.30;;;12.40;67.20;;;;;;5017422;28;20703;-75
2023/04/03 11:01:42;;;;;;;1.85;0.30;;;12.60;65.90;;;;;;5014654;28;20040;-73
2023/04/03 11:04:11;;;;;;;2.38;0.28;;;12.90;65.30;;;;;;5034336;28;20488;-74
2023/04/03 11:06:50;;;;;;;2.03;0.30;;;13.10;63.60;;;;;;5033565;28;20040;-71
2023/04/03 11:09:27;;;;;;;2.03;0.35;;;13.20;63.30;;;;;;5015386;28;20028;-72
2023/04/03 11:11:58;;;;;;;1.30;0.30;;;13.40;61.10;;;;;;5023338;28;20777;-71
2023/04/03 11:14:37;;;;;;;1.88;0.32;;;13.40;59.80;;;;;;5014311;28;20051;-72
2023/04/03 11:17:18;;;;;;;3.58;0.40;;;13.60;60.00;;;;;;5035064;28;20043;-72
2023/04/03 11:19:49;;;;;;;1.75;0.30;;;13.70;59.40;;;;;;5016543;28;20802;-72
2023/04/03 11:22:32;;;;;;;1.17;0.30;;;14.00;59.50;;;;;;5030479;28;20041;-72
2023/04/03 11:25:10;;;;;;;1.27;0.20;;;14.30;59.20;;;;;;5014399;28;20028;-72
2023/04/03 11:27:56;;;;;;;1.77;0.30;;;14.50;57.10;;;;;;5014276;28;20574;-72
2023/04/03 11:30:30;;;;;;;2.00;0.30;;;14.80;57.30;;;;;;5010825;28;20040;-71
2023/04/03 11:33:32;;;;;;;1.35;0.30;;;14.90;54.30;;;;;;5007903;28;20039;-71
2023/04/03 11:36:10;;;;;;;2.25;0.20;;;15.00;56.00;;;;;;5013172;28;20063;-72
2023/04/03 11:38:41;;;;;;;0.88;0.28;;;15.50;56.50;;;;;;5036354;28;20032;-72
2023/04/03 11:41:10;;;;;;;2.55;0.35;;;15.50;52.50;;;;;;5015805;28;20040;-73
2023/04/03 11:43:57;;;;;;;0.88;0.30;;;15.70;54.00;;;;;;5032719;28;20040;-72
2023/04/03 11:46:54;;;;;;;1.92;0.20;;;16.20;55.20;;;;;;5013072;28;20044;-73
2023/04/03 11:49:57;;;;;;;3.55;0.55;;;16.50;53.90;;;;;;4995215;28;20036;-73
2023/04/03 11:52:39;;;;;;;1.48;0.60;;;16.80;51.90;;;;;;5008514;28;20056;-73
2023/04/03 11:55:24;;;;;;;3.47;0.50;;;16.80;51.40;;;;;;5013222;28;20040;-73
2023/04/03 11:57:56;;;;;;;4.43;0.40;;;16.60;51.30;;;;;;5016491;28;20061;-72
2023/04/03 12:00:49;;;;;;;1.55;0.38;;;16.30;50.70;;;;;;5032855;28;20047;-72
2023/04/03 12:03:28;;;;;;;1.17;0.25;;;16.20;51.80;;;;;;5013042;28;20253;-72
2023/04/03 12:06:13;;;;;;;1.23;0.30;;;16.20;51.20;;;;;;5009281;28;20513;-71
2023/04/03 12:08:39;;;;;;;0.95;0.30;;;16.40;50.10;;;;;;5030473;28;20047;-72
2023/04/03 12:11:18;;;;;;;2.17;0.30;;;16.50;51.10;;;;;;5011006;28;20099;-73
2023/04/03 12:13:56;;;;;;;1.38;0.30;;;16.80;50.40;;;;;;5029477;28;20261;-72
2023/04/03 12:16:41;;;;;;;3.83;0.70;;;17.10;50.70;;;;;;5014127;28;20036;-73
2023/04/03 12:19:14;;;;;;;2.50;0.30;;;17.40;50.90;;;;;;5037178;28;20036;-73
2023/04/03 12:21:46;;;;;;;;;;;17.40;49.10;;;;;;5028683;28;20033;-72
2023/04/03 12:24:15;;;;;;;1.17;0.30;;;17.40;49.00;;;;;;5012693;28;20371;-72
2023/04/03 12:27:05;;;;;;;5.35;0.50;;;17.40;49.80;;;;;;5013387;28;20040;-72
2023/04/03 12:30:01;;;;;;;0.80;0.20;;;17.60;49.40;;;;;;5030625;28;20036;-71
2023/04/03 12:32:51;;;;;;;1.75;0.38;;;17.70;47.70;;;;;;5006101;28;20029;-71
2023/04/03 12:35:50;;;;;;;2.58;0.40;;;17.70;47.50;;;;;;5012034;28;20040;-72
2023/04/03 12:38:34;;;;;;;1.58;0.43;;;17.70;46.70;;;;;;4991569;28;20059;-72
2023/04/03 12:41:21;;;;;;;1.50;0.35;;;18.00;46.60;;;;;;5033835;28;20036;-73
2023/04/03 12:44:17;;;;;;;2.33;0.43;;;17.90;44.80;;;;;;5011113;28;23061;-71
2023/04/03 12:46:49;;;;;;;2.10;0.57;;;17.70;45.50;;;;;;4995465;28;20416;-71
2023/04/03 12:49:31;;;;;;;5.07;0.32;;;18.00;47.00;;;;;;5029925;28;20028;-73
2023/04/03 12:51:57;;;;;;;1.10;0.25;;;18.50;46.40;;;;;;5003260;28;20036;-72
2023/04/03 12:54:37;;;;;;;2.20;0.55;;;18.70;46.30;;;;;;5011158;28;20036;-72
2023/04/03 12:57:17;;;;;;;3.25;0.40;;;19.10;46.10;;;;;;5009166;28;20041;-71
2023/04/03 12:59:46;;;;;;;1.95;0.40;;;19.30;45.60;;;;;;5031856;28;20028;-72
2023/04/03 13:02:33;;;;;;;1.98;0.30;;;19.30;45.30;;;;;;4992505;28;20044;-70
2023/04/03 13:05:07;;;;;;;2.28;0.50;;;19.20;44.20;;;;;;5013123;28;20039;-72
2023/04/03 13:07:38;;;;;;;2.35;0.40;;;19.10;44.30;;;;;;5013015;28;20620;-73
2023/04/03 13:10:08;;;;;;;1.85;0.47;;;19.20;45.20;;;;;;5024691;28;20364;-70
2023/04/03 13:12:59;;;;;;;1.42;0.30;;;19.50;44.90;;;;;;5006118;28;20029;-71
2023/04/03 13:15:42;;;;;;;2.17;0.40;;;19.60;44.00;;;;;;5030835;28;20024;-72